Time;durP1;ratioP1;P1;durP2;ratioP2;P2;SDS_P1;SDS_P2;PMS_P1;PMS_P2;Temp;Humidity;BMP_temperature;BMP_pressure;BME280_temperature;BME280_humidity;BME280_pressure;Samples;Min_cycle;Max_cycle;Signal;HPM_P1;HPM_P2
2022/05/02 00:01:06;;;;;;;12.82;9.68;;;359.30;2329.60;;;;;;4899188;29;20056;-77
2022/05/02 00:03:32;;;;;;;13.82;9.15;;;359.20;2329.60;;;;;;4915050;29;20032;-78
2022/05/02 00:05:58;;;;;;;11.93;8.45;;;359.00;2329.60;;;;;;4917616;29;20024;-80
2022/05/02 00:08:24;;;;;;;9.88;7.53;;;359.10;2329.60;;;;;;4917594;29;20462;-80
2022/05/02 00:10:49;;;;;;;8.70;6.32;;;359.10;2329.60;;;;;;4915800;29;20066;-79
2022/05/02 00:13:15;;;;;;;9.93;5.80;;;359.20;2329.60;;;;;;4916518;29;20063;-80
2022/05/02 00:15:41;;;;;;;7.55;5.88;;;359.00;2329.60;;;;;;4901039;29;20024;-79
2022/05/02 00:18:08;;;;;;;8.18;5.72;;;359.10;2329.60;;;;;;4936622;29;20028;-80
2022/05/02 00:20:38;;;;;;;11.18;6.63;;;359.20;2329.60;;;;;;4935380;29;20024;-79
2022/05/02 00:23:09;;;;;;;10.18;6.50;;;359.10;2329.60;;;;;;4913979;29;20036;-80
2022/05/02 00:25:35;;;;;;;12.82;6.32;;;359.00;2329.60;;;;;;4915626;29;20127;-78
2022/05/02 00:28:02;;;;;;;9.75;5.95;;;359.10;2329.60;;;;;;4916302;29;20120;-81
2022/05/02 00:30:29;;;;;;;11.02;5.78;;;359.10;2329.60;;;;;;4915487;29;20126;-79
2022/05/02 00:32:55;;;;;;;8.45;7.07;;;359.10;2329.60;;;;;;4917034;29;20032;-78
2022/05/02 00:35:24;;;;;;;12.02;8.82;;;359.00;2329.60;;;;;;4916159;29;20431;-81
2022/05/02 00:37:50;;;;;;;11.15;6.68;;;359.10;2329.60;;;;;;4915880;29;20032;-78
2022/05/02 00:40:17;;;;;;;9.77;6.40;;;359.00;2329.60;;;;;;4916109;29;20028;-81
2022/05/02 00:42:45;;;;;;;9.25;6.75;;;359.10;2329.60;;;;;;4916095;29;20372;-79
2022/05/02 00:45:13;;;;;;;10.20;7.82;;;359.20;2329.60;;;;;;4914872;29;20088;-78
2022/05/02 00:47:40;;;;;;;12.57;7.75;;;358.70;2329.60;;;;;;4917340;29;20028;-79
2022/05/02 00:50:11;;;;;;;13.00;8.23;;;358.70;2329.60;;;;;;4899624;29;20032;-81
2022/05/02 00:52:37;;;;;;;11.68;8.07;;;358.80;2329.60;;;;;;4915893;29;20104;-79
2022/05/02 00:55:04;;;;;;;12.00;9.18;;;358.70;2329.60;;;;;;4916624;29;20463;-80
2022/05/02 00:57:31;;;;;;;13.63;11.23;;;358.80;2329.60;;;;;;4916403;29;20507;-78
2022/05/02 00:59:57;;;;;;;17.02;11.82;;;358.50;2329.60;;;;;;4915121;29;20032;-80
2022/05/02 01:02:24;;;;;;;13.23;10.00;;;358.50;2329.60;;;;;;4915474;29;20048;-79
2022/05/02 01:04:50;;;;;;;15.10;8.80;;;358.60;2329.60;;;;;;4914983;29;20034;-80
2022/05/02 01:07:19;;;;;;;19.95;14.80;;;358.60;2329.60;;;;;;4915606;29;20378;-80
2022/05/02 01:09:52;;;;;;;22.08;15.90;;;333.70;2329.60;;;;;;4915712;29;20051;-81
2022/05/02 01:12:21;;;;;;;30.42;18.38;;;333.40;2329.60;;;;;;4915479;29;20394;-79
2022/05/02 01:14:50;;;;;;;23.55;15.48;;;333.40;2329.60;;;;;;4914840;29;20063;-80
2022/05/02 01:17:16;;;;;;;18.75;13.23;;;333.60;2329.60;;;;;;4915754;29;20021;-79
2022/05/02 01:19:43;;;;;;;14.40;11.90;;;333.60;2329.60;;;;;;4915220;29;20032;-79
2022/05/02 01:22:10;;;;;;;17.08;11.43;;;333.60;2329.60;;;;;;4915338;29;20036;-81
2022/05/02 01:24:37;;;;;;;14.55;10.38;;;333.60;2329.60;;;;;;4915705;29;20047;-79
2022/05/02 01:27:04;;;;;;;13.25;10.13;;;333.50;2329.60;;;;;;4916749;29;20092;-80
2022/05/02 01:29:32;;;;;;;12.48;10.50;;;333.60;2329.60;;;;;;4915328;29;20032;-80
2022/05/02 01:31:58;;;;;;;13.32;10.32;;;333.40;2329.60;;;;;;4914936;29;20471;-79
2022/05/02 01:34:24;;;;;;;13.20;10.50;;;333.10;2329.60;;;;;;4915267;29;20044;-78
2022/05/02 01:36:50;;;;;;;15.95;10.70;;;333.20;2329.60;;;;;;4915050;29;20057;-79
2022/05/02 01:39:16;;;;;;;13.32;9.85;;;333.40;2329.60;;;;;;4919335;29;20123;-80
2022/05/02 01:41:42;;;;;;;15.73;11.25;;;333.30;2329.60;;;;;;4918822;29;20055;-80
2022/05/02 01:44:09;;;;;;;19.92;12.98;;;333.50;2329.60;;;;;;4918331;29;20467;-77
2022/05/02 01:46:36;;;;;;;20.70;13.77;;;333.70;2329.60;;;;;;4918413;29;20163;-82
2022/05/02 01:49:02;;;;;;;19.40;14.23;;;333.60;2329.60;;;;;;4918643;29;20061;-80
2022/05/02 01:51:33;;;;;;;16.92;11.57;;;358.50;2329.60;;;;;;4902302;29;20033;-81
2022/05/02 01:54:03;;;;;;;17.15;12.05;;;333.70;2329.60;;;;;;4919071;29;20036;-79
2022/05/02 01:56:29;;;;;;;18.80;12.98;;;358.40;2329.60;;;;;;4918813;29;20492;-79
2022/05/02 01:58:58;;;;;;;12.68;10.25;;;333.70;2329.60;;;;;;4918032;29;20028;-81
2022/05/02 02:01:24;;;;;;;13.85;9.70;;;333.50;2329.60;;;;;;4916090;29;20122;-80
2022/05/02 02:03:51;;;;;;;9.82;7.07;;;333.70;2329.60;;;;;;4901287;29;20056;-80
2022/05/02 02:06:17;;;;;;;8.57;5.40;;;358.50;2329.60;;;;;;4901955;29;20051;-79
2022/05/02 02:08:43;;;;;;;7.65;4.68;;;358.40;2329.60;;;;;;4902562;29;20029;-79
2022/05/02 02:11:10;;;;;;;7.07;4.70;;;358.50;2329.60;;;;;;4901813;29;20389;-79
2022/05/02 02:13:38;;;;;;;6.30;4.47;;;358.50;2329.60;;;;;;4884458;29;20033;-77
2022/05/02 02:16:10;;;;;;;11.55;8.15;;;358.60;2329.60;;;;;;4894361;29;20033;-80
2022/05/02 02:18:42;;;;;;;;;;;358.50;2329.60;;;;;;4894912;29;20067;-78
2022/05/02 02:21:10;;;;;;;15.65;11.10;;;358.50;2329.60;;;;;;4883750;29;19907;-79
2022/05/02 02:23:37;;;;;;;16.73;12.80;;;358.40;2329.60;;;;;;4899163;29;20050;-79
2022/05/02 02:26:05;;;;;;;13.38;11.10;;;333.70;2329.60;;;;;;4883290;29;20029;-79
2022/05/02 02:28:32;;;;;;;16.88;11.10;;;333.60;2329.60;;;;;;4883105;29;20116;-80
2022/05/02 02:30:58;;;;;;;20.90;12.85;;;333.70;2329.60;;;;;;4883574;29;20471;-79
2022/05/02 02:33:24;;;;;;;18.13;12.38;;;333.60;2329.60;;;;;;4895150;29;20039;-81
2022/05/02 02:35:59;;;;;;;10.57;8.30;;;333.70;2329.60;;;;;;4902020;29;20028;-77
2022/05/02 02:38:26;;;;;;;10.57;8.25;;;333.70;2329.60;;;;;;4917379;29;20032;-80
2022/05/02 02:40:52;;;;;;;11.07;7.68;;;333.60;2329.60;;;;;;4902273;29;20028;-79
2022/05/02 02:43:18;;;;;;;10.68;7.22;;;333.50;2329.60;;;;;;4901668;29;20059;-79
2022/05/02 02:45:44;;;;;;;15.27;9.10;;;333.30;2329.60;;;;;;4918627;29;20127;-80
2022/05/02 02:48:10;;;;;;;10.20;7.50;;;333.30;2329.60;;;;;;4901965;29;20039;-77
2022/05/02 02:50:36;;;;;;;9.20;6.30;;;333.50;2329.60;;;;;;4901021;29;20024;-77
2022/05/02 02:53:02;;;;;;;10.32;7.45;;;333.50;2329.60;;;;;;4902159;29;20073;-80
2022/05/02 02:55:28;;;;;;;14.00;8.95;;;333.40;2329.60;;;;;;4901185;29;20028;-77
2022/05/02 02:57:55;;;;;;;10.55;7.07;;;333.40;2329.60;;;;;;4901843;29;20151;-78
2022/05/02 03:00:21;;;;;;;9.85;6.20;;;333.30;2329.60;;;;;;4901761;29;20518;-79
2022/05/02 03:02:49;;;;;;;9.73;6.22;;;333.40;2329.60;;;;;;4918117;29;20059;-78
2022/05/02 03:07:59;;;;;;;8.05;5.82;;;333.40;2329.60;;;;;;4917980;29;20047;-80
2022/05/02 03:10:27;;;;;;;9.23;5.30;;;333.50;2329.60;;;;;;4901615;29;20032;-78
2022/05/02 03:12:54;;;;;;;8.55;5.78;;;333.50;2329.60;;;;;;4900939;29;20028;-78
2022/05/02 03:15:20;;;;;;;12.15;7.95;;;333.60;2329.60;;;;;;4900695;29;20075;-78
2022/05/02 03:17:50;;;;;;;16.35;10.60;;;358.40;2329.60;;;;;;4900634;29;20431;-80
2022/05/02 03:20:15;;;;;;;15.95;10.73;;;333.70;2329.60;;;;;;4901607;29;20119;-78
2022/05/02 03:22:42;;;;;;;15.38;11.43;;;333.40;2329.60;;;;;;4901194;29;20115;-77
2022/05/02 03:25:08;;;;;;;16.55;10.35;;;333.40;2329.60;;;;;;4901218;29;20035;-78
2022/05/02 03:27:34;;;;;;;16.63;10.75;;;333.30;2329.60;;;;;;4900606;29;20028;-79
2022/05/02 03:30:00;;;;;;;15.32;10.85;;;333.20;2329.60;;;;;;4901415;29;20032;-78
2022/05/02 03:32:29;;;;;;;15.00;11.40;;;333.20;2329.60;;;;;;4900302;29;20462;-79
2022/05/02 03:34:58;;;;;;;14.50;10.98;;;333.30;2329.60;;;;;;4901362;29;20028;-78
2022/05/02 03:37:24;;;;;;;13.20;10.98;;;333.10;2329.60;;;;;;4899067;29;20090;-78
2022/05/02 03:39:52;;;;;;;14.25;11.75;;;333.20;2329.60;;;;;;4915885;29;20477;-78
2022/05/02 03:42:18;;;;;;;14.35;11.77;;;333.30;2329.60;;;;;;4901100;29;20071;-78
2022/05/02 03:44:44;;;;;;;19.27;13.27;;;333.20;2329.60;;;;;;4900279;29;20032;-78
2022/05/02 03:47:10;;;;;;;23.70;12.85;;;333.20;2329.60;;;;;;4900123;29;20043;-79
2022/05/02 03:49:36;;;;;;;18.50;12.55;;;333.10;2329.60;;;;;;4901049;29;20031;-79
2022/05/02 03:52:03;;;;;;;16.63;11.98;;;332.90;2329.60;;;;;;4900798;29;20039;-79
2022/05/02 03:54:32;;;;;;;16.83;13.02;;;333.00;2329.60;;;;;;4899954;29;20159;-78
2022/05/02 03:56:58;;;;;;;19.33;12.90;;;333.20;2329.60;;;;;;4900885;29;20367;-78
2022/05/02 03:59:24;;;;;;;17.15;12.45;;;333.20;2329.60;;;;;;4916239;29;20024;-77
2022/05/02 04:01:51;;;;;;;15.85;12.60;;;333.30;2329.60;;;;;;4916667;29;20072;-79
2022/05/02 04:04:17;;;;;;;14.65;12.45;;;333.40;2329.60;;;;;;4900095;29;20028;-78
2022/05/02 04:06:52;;;;;;;17.65;12.52;;;333.60;2329.60;;;;;;4899729;29;20458;-81
2022/05/02 04:09:21;;;;;;;14.95;11.55;;;333.50;2329.60;;;;;;4900330;29;20036;-79
2022/05/02 04:11:47;;;;;;;14.57;9.80;;;333.60;2329.60;;;;;;4900694;29;20177;-77
2022/05/02 04:14:13;;;;;;;15.13;10.43;;;333.70;2329.60;;;;;;4899906;29;20028;-78
2022/05/02 04:16:39;;;;;;;14.32;11.52;;;333.70;2329.60;;;;;;4900744;29;20462;-79
2022/05/02 04:19:05;;;;;;;14.18;12.15;;;358.40;2329.60;;;;;;4899448;29;20063;-78
2022/05/02 04:21:31;;;;;;;13.45;11.93;;;333.60;2329.60;;;;;;4899916;29;20391;-79
2022/05/02 04:23:57;;;;;;;15.75;12.80;;;333.70;2329.60;;;;;;4896196;29;20037;-78
2022/05/02 04:26:23;;;;;;;14.68;11.98;;;358.40;2329.60;;;;;;4881914;29;20448;-80
2022/05/02 04:28:49;;;;;;;16.23;12.48;;;333.70;2329.60;;;;;;4882313;29;20029;-78
2022/05/02 04:31:19;;;;;;;14.27;12.43;;;333.70;2329.60;;;;;;4917137;29;20398;-80
2022/05/02 04:33:45;;;;;;;14.88;11.90;;;333.70;2329.60;;;;;;4916366;29;20055;-80
2022/05/02 04:36:11;;;;;;;13.82;11.38;;;358.40;2329.60;;;;;;4916858;29;20024;-80
2022/05/02 04:38:42;;;;;;;17.92;12.18;;;358.50;2329.60;;;;;;4899652;29;20028;-77
2022/05/02 04:41:13;;;;;;;15.88;12.32;;;358.40;2329.60;;;;;;4900313;29;20024;-80
2022/05/02 04:43:40;;;;;;;17.58;12.05;;;358.50;2329.60;;;;;;4899388;29;20500;-77
2022/05/02 04:46:06;;;;;;;21.05;14.00;;;358.60;2329.60;;;;;;4899412;29;20033;-78
2022/05/02 04:48:32;;;;;;;18.15;13.50;;;358.50;2329.60;;;;;;4899395;29;20032;-79
2022/05/02 04:50:58;;;;;;;19.33;13.32;;;358.60;2329.60;;;;;;4897607;29;20024;-78
2022/05/02 04:53:24;;;;;;;17.40;14.38;;;358.80;2329.60;;;;;;4881036;29;20047;-78
2022/05/02 04:55:50;;;;;;;17.52;13.23;;;358.80;2329.60;;;;;;4897225;29;20075;-77
2022/05/02 04:58:16;;;;;;;25.25;14.85;;;358.80;2329.60;;;;;;4886462;29;20028;-79
2022/05/02 05:00:43;;;;;;;21.55;15.65;;;358.80;2329.60;;;;;;4912734;29;20088;-80
2022/05/02 05:03:09;;;;;;;20.50;14.52;;;358.80;2329.60;;;;;;4884062;29;20040;-79
2022/05/02 05:05:37;;;;;;;21.13;14.60;;;358.90;2329.60;;;;;;4896319;29;20028;-79
2022/05/02 05:08:03;;;;;;;17.98;14.82;;;359.00;2329.60;;;;;;4881516;29;20025;-78
2022/05/02 05:10:35;;;;;;;20.67;14.52;;;359.00;2329.60;;;;;;4881347;29;20033;-80
2022/05/02 05:13:08;;;;;;;19.67;13.85;;;358.90;2329.60;;;;;;4886213;29;20032;-79
2022/05/02 05:19:10;;;;;;;15.15;11.20;;;358.90;2329.60;;;;;;4901350;29;20092;-79
2022/05/02 05:22:11;;;;;;;20.83;11.75;;;359.20;2329.60;;;;;;4899614;29;20032;-79
2022/05/02 05:24:58;;;;;;;20.20;13.05;;;359.10;2329.60;;;;;;4883993;29;20041;-78
2022/05/02 05:27:46;;;;;;;18.52;14.43;;;359.00;2329.60;;;;;;4900059;29;20119;-77
2022/05/02 05:30:12;;;;;;;16.42;11.98;;;359.10;2329.60;;;;;;4884539;29;20033;-78
2022/05/02 05:32:58;;;;;;;17.02;13.77;;;359.00;2329.60;;;;;;4883568;29;20033;-77
2022/05/02 05:35:37;;;;;;;20.55;14.05;;;358.90;2329.60;;;;;;4900251;29;20386;-79
2022/05/02 05:38:20;;;;;;;19.38;12.65;;;359.00;2329.60;;;;;;4883607;29;20529;-80
2022/05/02 05:40:49;;;;;;;;;;;359.00;2329.60;;;;;;4884797;29;20025;-79
2022/05/02 05:43:26;;;;;;;12.10;9.60;;;359.30;2329.60;;;;;;4900639;29;19922;-78
2022/05/02 05:45:54;;;;;;;11.48;9.27;;;384.00;2329.60;;;;;;4884222;29;20028;-78
2022/05/02 05:48:49;;;;;;;11.43;8.07;;;384.10;2329.60;;;;;;4899880;29;20029;-78
2022/05/02 05:51:48;;;;;;;12.20;7.63;;;384.20;2329.60;;;;;;4884120;29;20085;-78
2022/05/02 05:54:48;;;;;;;8.15;6.88;;;384.30;2329.60;;;;;;4884586;29;20383;-77
2022/05/02 05:57:36;;;;;;;9.73;7.18;;;384.50;2329.60;;;;;;4899995;29;20031;-78
2022/05/02 06:00:12;;;;;;;13.35;7.10;;;384.60;2329.60;;;;;;4900921;29;20032;-78
2022/05/02 06:03:16;;;;;;;13.48;9.57;;;384.70;2329.60;;;;;;4883088;29;20044;-78
2022/05/02 06:05:45;;;;;;;20.85;12.02;;;384.80;2329.60;;;;;;4900497;29;20495;-77
2022/05/02 06:08:15;;;;;;;15.48;10.68;;;384.70;2329.60;;;;;;4883536;29;20067;-80
2022/05/02 06:10:42;;;;;;;20.50;9.88;;;384.90;2329.60;;;;;;4884034;29;20036;-78
2022/05/02 06:13:09;;;;;;;11.73;8.48;;;384.70;2329.60;;;;;;4882812;29;20497;-78
2022/05/02 06:18:31;;;;;;;15.23;11.23;;;409.70;2355.20;;;;;;4899804;29;20100;-76
2022/05/02 06:21:02;;;;;;;14.75;10.50;;;409.90;2355.20;;;;;;4883783;29;20275;-79
2022/05/02 06:23:35;;;;;;;16.40;12.07;;;410.10;2355.20;;;;;;4882359;29;20498;-79
2022/05/02 06:26:03;;;;;;;15.00;10.27;;;410.20;2355.20;;;;;;4883848;29;20543;-76
2022/05/02 06:28:40;;;;;;;19.00;11.23;;;410.30;2355.20;;;;;;4882821;29;20033;-77
2022/05/02 06:31:13;;;;;;;18.23;10.65;;;410.50;2355.20;;;;;;4882707;29;20036;-80
2022/05/02 06:33:41;;;;;;;9.13;6.78;;;435.20;2355.20;;;;;;4882378;29;20094;-78
2022/05/02 06:36:45;;;;;;;11.82;6.95;;;435.20;2355.20;;;;;;4898440;29;20247;-76
2022/05/02 06:39:23;;;;;;;8.65;6.45;;;435.40;2355.20;;;;;;4898171;29;20061;-79
2022/05/02 06:42:14;;;;;;;8.68;6.75;;;435.50;2355.20;;;;;;4898082;29;20033;-78
2022/05/02 06:44:52;;;;;;;9.15;5.90;;;435.60;2355.20;;;;;;4897341;29;20028;-79
2022/05/02 06:47:30;;;;;;;8.23;6.00;;;435.70;2355.20;;;;;;4899116;29;20033;-77
2022/05/02 06:49:57;;;;;;;8.40;6.80;;;435.80;2355.20;;;;;;4900048;29;20105;-77
2022/05/02 06:52:28;;;;;;;10.57;6.68;;;435.80;2355.20;;;;;;4916988;29;20036;-77
2022/05/02 06:55:05;;;;;;;9.98;6.57;;;436.00;2355.20;;;;;;4899441;29;20039;-77
2022/05/02 06:58:03;;;;;;;10.30;6.18;;;436.00;2355.20;;;;;;4917812;29;20063;-77
2022/05/02 07:00:36;;;;;;;7.28;5.53;;;436.10;2355.20;;;;;;4897880;29;20096;-78
2022/05/02 07:03:48;;;;;;;8.07;5.82;;;460.80;2380.80;;;;;;4882822;29;20108;-79
2022/05/02 07:06:17;;;;;;;7.10;5.32;;;460.80;2380.80;;;;;;4901200;29;20032;-77
2022/05/02 07:08:49;;;;;;;7.82;5.75;;;460.80;2380.80;;;;;;4901006;29;20115;-77
2022/05/02 07:11:20;;;;;;;6.65;5.25;;;460.90;2380.80;;;;;;4918362;29;20059;-77
2022/05/02 07:14:16;;;;;;;10.13;5.43;;;460.90;2380.80;;;;;;4917423;29;20038;-76
2022/05/02 07:16:51;;;;;;;10.98;5.20;;;461.00;2355.20;;;;;;4901183;29;20031;-75
2022/05/02 07:19:22;;;;;;;9.30;5.53;;;460.80;2329.60;;;;;;4917861;29;20024;-77
2022/05/02 07:22:23;;;;;;;7.25;5.35;;;461.00;2329.60;;;;;;4900978;29;20047;-77
2022/05/02 07:25:04;;;;;;;7.10;4.70;;;461.10;2355.20;;;;;;4852609;29;20028;-77
2022/05/02 07:27:48;;;;;;;8.27;5.40;;;461.20;2329.60;;;;;;4882444;29;20029;-77
2022/05/02 07:30:17;;;;;;;7.18;4.60;;;461.40;2278.40;;;;;;4881722;29;20058;-76
2022/05/02 07:32:44;;;;;;;9.48;5.20;;;461.50;2278.40;;;;;;4899489;29;20024;-77
2022/05/02 07:35:13;;;;;;;7.47;5.10;;;461.70;2252.80;;;;;;4897813;29;20028;-77
2022/05/02 07:37:42;;;;;;;7.15;5.18;;;486.40;2278.40;;;;;;4897658;29;20505;-76
2022/05/02 07:40:11;;;;;;;7.38;5.50;;;486.40;2252.80;;;;;;4897474;29;20036;-76
2022/05/02 07:42:38;;;;;;;8.10;5.13;;;486.40;2278.40;;;;;;4897590;29;20124;-76
2022/05/02 07:45:10;;;;;;;10.00;5.55;;;486.40;2252.80;;;;;;4897419;29;20029;-76
2022/05/02 07:47:36;;;;;;;8.77;5.65;;;486.40;2252.80;;;;;;4897656;29;20029;-76
2022/05/02 07:50:05;;;;;;;9.07;5.18;;;486.70;2227.20;;;;;;4897826;29;20037;-77
2022/05/02 07:52:35;;;;;;;9.77;6.00;;;487.00;2176.00;;;;;;4897157;29;20037;-77
2022/05/02 07:55:03;;;;;;;7.40;4.85;;;487.10;2176.00;;;;;;4882247;29;20025;-77
2022/05/02 07:57:33;;;;;;;7.38;5.18;;;487.10;2124.80;;;;;;4898409;29;20029;-76
2022/05/02 08:00:00;;;;;;;13.80;12.20;;;487.20;2073.60;;;;;;4897829;29;20035;-77
2022/05/02 08:02:26;;;;;;;10.15;6.63;;;512.00;1996.80;;;;;;4898575;29;20064;-77
2022/05/02 08:04:56;;;;;;;10.25;5.20;;;512.30;2022.40;;;;;;4916690;29;20424;-77
2022/05/02 08:07:38;;;;;;;8.80;5.53;;;512.40;1996.80;;;;;;4900538;29;20251;-77
2022/05/02 08:10:10;;;;;;;7.38;4.68;;;512.40;1971.20;;;;;;4916216;29;20036;-73
2022/05/02 08:12:40;;;;;;;8.27;5.43;;;512.70;1971.20;;;;;;4901044;29;20123;-77
2022/05/02 08:15:07;;;;;;;6.95;5.13;;;512.80;1971.20;;;;;;4897007;29;20159;-76
2022/05/02 08:17:36;;;;;;;8.52;4.78;;;512.90;1945.60;;;;;;4902936;29;20028;-76
2022/05/02 08:20:12;;;;;;;8.60;4.90;;;537.80;1971.20;;;;;;4900412;29;20083;-76
2022/05/02 08:28:59;;;;;;;6.93;4.22;;;537.90;1843.20;;;;;;4918706;29;20030;-78
2022/05/02 08:31:43;;;;;;;5.15;3.70;;;537.80;1868.80;;;;;;4906251;29;20032;-77
2022/05/02 08:34:30;;;;;;;8.25;4.72;;;537.80;1868.80;;;;;;4900086;29;20115;-79
2022/05/02 08:37:20;;;;;;;8.52;4.63;;;537.90;1868.80;;;;;;4900061;29;20032;-79
2022/05/02 08:40:05;;;;;;;6.22;4.57;;;537.90;1868.80;;;;;;4917112;29;20060;-78
2022/05/02 08:43:00;;;;;;;7.10;4.35;;;537.90;1843.20;;;;;;4917183;29;20047;-78
2022/05/02 08:46:03;;;;;;;5.82;4.20;;;537.80;1817.60;;;;;;4917122;29;20125;-78
2022/05/02 08:49:32;;;;;;;7.15;4.75;;;537.80;1843.20;;;;;;4921167;29;20035;-79
2022/05/02 08:51:54;;;;;;;9.35;4.93;;;537.90;1843.20;;;;;;4923146;29;20095;-79
2022/05/02 08:54:57;;;;;;;6.68;4.05;;;538.20;1843.20;;;;;;4921817;29;20024;-78
2022/05/02 08:57:53;;;;;;;8.10;4.47;;;538.40;1817.60;;;;;;4921716;29;20032;-77
2022/05/02 09:00:30;;;;;;;10.18;7.55;;;563.20;1843.20;;;;;;4904075;29;20036;-75
2022/05/02 09:03:32;;;;;;;12.18;5.85;;;563.20;1817.60;;;;;;4886664;29;20044;-75
2022/05/02 09:06:18;;;;;;;7.30;4.25;;;563.30;1740.80;;;;;;4904423;29;20498;-74
2022/05/02 09:09:23;;;;;;;5.50;3.72;;;563.60;1740.80;;;;;;4902812;29;20511;-75
2022/05/02 09:12:13;;;;;;;11.45;8.55;;;563.60;1715.20;;;;;;4881213;29;20048;-75
2022/05/02 09:15:03;;;;;;;7.43;4.75;;;563.60;1740.80;;;;;;4902280;29;20045;-75
2022/05/02 09:18:11;;;;;;;12.77;7.30;;;563.60;1766.40;;;;;;4903267;29;20025;-75
2022/05/02 09:20:56;;;;;;;8.85;4.95;;;563.50;1740.80;;;;;;4842993;29;20051;-75
2022/05/02 09:24:03;;;;;;;6.75;4.10;;;563.30;1740.80;;;;;;4902914;29;20131;-74
2022/05/02 09:26:45;;;;;;;7.28;4.22;;;538.40;1689.60;;;;;;4910229;29;20039;-75
2022/05/02 09:29:49;;;;;;;10.68;5.70;;;538.30;1715.20;;;;;;4921753;29;20435;-75
2022/05/02 09:32:21;;;;;;;10.05;5.35;;;538.30;1715.20;;;;;;4909625;29;20574;-77
2022/05/02 09:35:02;;;;;;;;;;;538.40;1715.20;;;;;;4887744;29;20055;-77
2022/05/02 09:37:38;;;;;;;6.28;4.57;;;538.40;1715.20;;;;;;4898318;29;19957;-78
2022/05/02 09:40:16;;;;;;;7.70;5.20;;;538.50;1740.80;;;;;;4906003;29;20443;-77
2022/05/02 09:43:01;;;;;;;9.63;5.28;;;538.50;1715.20;;;;;;4905152;29;20160;-77
2022/05/02 09:51:38;;;;;;;7.63;4.38;;;563.60;1715.20;;;;;;4921713;29;20099;-77
2022/05/02 09:57:54;;;;;;;5.45;3.10;;;563.80;1638.40;;;;;;4921511;29;20031;-77
2022/05/02 10:03:25;;;;;;;4.72;3.33;;;563.60;1664.00;;;;;;4900047;29;20101;-76
2022/05/02 10:06:03;;;;;;;6.53;3.28;;;563.50;1638.40;;;;;;4884344;29;20029;-78
2022/05/02 10:08:48;;;;;;;6.50;3.38;;;563.30;1664.00;;;;;;4883686;29;20036;-76
2022/05/02 10:11:35;;;;;;;13.23;6.78;;;563.30;1638.40;;;;;;4900133;29;20025;-78
2022/05/02 10:14:19;;;;;;;9.98;6.80;;;563.30;1638.40;;;;;;4885837;29;20028;-79
2022/05/02 10:17:04;;;;;;;12.30;8.05;;;563.20;1638.40;;;;;;4899445;29;20025;-77
2022/05/02 10:19:46;;;;;;;12.75;8.20;;;538.50;1612.80;;;;;;4883211;29;20155;-77
2022/05/02 10:22:35;;;;;;;8.32;5.28;;;538.40;1612.80;;;;;;4899848;29;20391;-77
2022/05/02 10:25:11;;;;;;;6.63;4.60;;;538.40;1638.40;;;;;;4890621;29;20048;-77
2022/05/02 10:28:09;;;;;;;7.13;4.72;;;538.30;1638.40;;;;;;4902811;29;20157;-76
2022/05/02 10:31:13;;;;;;;12.68;6.40;;;538.20;1638.40;;;;;;4900647;29;20064;-76
2022/05/02 10:33:43;;;;;;;6.22;3.15;;;538.20;1638.40;;;;;;4897289;29;20044;-76
2022/05/02 10:36:10;;;;;;;5.93;3.25;;;538.20;1612.80;;;;;;4883168;29;20387;-77
2022/05/02 10:38:52;;;;;;;7.18;3.65;;;538.20;1612.80;;;;;;4900582;29;20068;-77
2022/05/02 10:41:27;;;;;;;9.75;4.32;;;538.30;1638.40;;;;;;4908284;29;20147;-77
2022/05/02 10:44:04;;;;;;;8.77;4.35;;;538.30;1612.80;;;;;;4901822;29;20066;-75
2022/05/02 10:46:32;;;;;;;7.70;3.97;;;538.40;1638.40;;;;;;4918192;29;20162;-74
2022/05/02 10:49:27;;;;;;;8.02;3.72;;;538.30;1612.80;;;;;;4917682;29;20087;-76
2022/05/02 10:52:15;;;;;;;5.85;3.78;;;538.30;1638.40;;;;;;4917779;29;20494;-75
2022/05/02 10:55:05;;;;;;;6.68;4.07;;;538.30;1638.40;;;;;;4917350;29;20053;-74
2022/05/02 10:57:38;;;;;;;7.65;4.15;;;538.20;1664.00;;;;;;4903098;29;20028;-77
2022/05/02 11:00:07;;;;;;;5.72;3.65;;;538.10;1638.40;;;;;;4918017;29;20179;-75
2022/05/02 11:02:50;;;;;;;8.43;5.15;;;538.00;1664.00;;;;;;4913727;29;20052;-76
2022/05/02 11:05:17;;;;;;;12.73;6.32;;;538.00;1664.00;;;;;;4897944;29;20032;-76
2022/05/02 11:08:19;;;;;;;9.57;6.63;;;538.00;1664.00;;;;;;4899261;29;20116;-76
2022/05/02 11:10:56;;;;;;;11.82;6.03;;;538.00;1664.00;;;;;;4892175;29;20047;-78
2022/05/02 11:13:49;;;;;;;10.20;4.50;;;538.00;1664.00;;;;;;4898280;29;20028;-76
2022/05/02 11:16:41;;;;;;;7.95;4.25;;;538.00;1664.00;;;;;;4897499;29;20033;-77
2022/05/02 11:22:39;;;;;;;11.70;3.60;;;538.20;1664.00;;;;;;4822590;29;20092;-77
2022/05/02 11:25:20;;;;;;;7.10;4.63;;;538.20;1664.00;;;;;;4878095;29;20097;-76
2022/05/02 11:28:01;;;;;;;6.55;4.07;;;538.20;1664.00;;;;;;4896909;29;20471;-76
2022/05/02 11:30:28;;;;;;;6.32;4.70;;;538.20;1638.40;;;;;;4897652;29;20127;-76
2022/05/02 11:33:06;;;;;;;9.05;4.70;;;538.20;1689.60;;;;;;4913152;29;20092;-76
2022/05/02 11:35:34;;;;;;;8.57;4.72;;;538.30;1664.00;;;;;;4898997;29;20035;-76
2022/05/02 11:38:12;;;;;;;6.93;4.30;;;538.30;1689.60;;;;;;4903916;29;20360;-77
2022/05/02 11:40:50;;;;;;;7.60;4.18;;;538.30;1664.00;;;;;;4899013;29;20440;-78
2022/05/02 11:43:21;;;;;;;6.72;4.55;;;538.40;1638.40;;;;;;4896771;29;20044;-77
2022/05/02 11:46:05;;;;;;;5.78;3.90;;;538.50;1638.40;;;;;;4897311;29;20040;-78
2022/05/02 11:48:58;;;;;;;16.00;6.97;;;563.30;1664.00;;;;;;4912477;29;20470;-75
2022/05/02 11:51:30;;;;;;;9.55;5.55;;;563.40;1638.40;;;;;;4897868;29;20456;-76
2022/05/02 11:53:58;;;;;;;9.00;4.63;;;563.50;1638.40;;;;;;4898474;29;20035;-76
2022/05/02 11:56:31;;;;;;;11.68;5.85;;;563.50;1612.80;;;;;;4898496;29;20043;-77
2022/05/02 11:59:05;;;;;;;10.38;4.07;;;563.60;1638.40;;;;;;4900500;29;20091;-77
2022/05/02 12:01:38;;;;;;;8.25;5.10;;;563.70;1612.80;;;;;;4916418;29;20398;-78
2022/05/02 12:04:04;;;;;;;10.68;4.43;;;563.80;1638.40;;;;;;4914643;29;20047;-79
2022/05/02 12:06:40;;;;;;;7.40;3.80;;;564.10;1612.80;;;;;;4916518;29;20066;-78
2022/05/02 12:09:29;;;;;;;7.38;4.95;;;588.80;1587.20;;;;;;4889011;29;20032;-78
2022/05/02 12:11:58;;;;;;;8.52;4.22;;;589.00;1612.80;;;;;;4898289;29;20116;-79
2022/05/02 12:14:24;;;;;;;8.70;4.47;;;589.40;1561.60;;;;;;4896722;29;20035;-78
2022/05/02 12:17:11;;;;;;;11.57;5.35;;;589.70;1561.60;;;;;;4897053;29;20477;-79
2022/05/02 12:19:38;;;;;;;8.85;4.57;;;614.40;1536.00;;;;;;4908509;29;20083;-78
2022/05/02 12:22:08;;;;;;;7.10;3.85;;;614.40;1510.40;;;;;;4915408;29;20044;-77
2022/05/02 12:24:36;;;;;;;9.90;4.07;;;614.40;1510.40;;;;;;4915111;29;20451;-78
2022/05/02 12:27:08;;;;;;;7.60;4.82;;;589.70;1536.00;;;;;;4917280;29;20111;-78
2022/05/02 12:29:35;;;;;;;7.53;4.67;;;589.60;1536.00;;;;;;4916657;29;20028;-78
2022/05/02 12:32:04;;;;;;;9.10;5.13;;;589.60;1536.00;;;;;;4915814;29;20032;-77
2022/05/02 12:34:39;;;;;;;5.80;3.72;;;589.70;1536.00;;;;;;4915745;29;20122;-78
2022/05/02 12:37:10;;;;;;;6.95;4.47;;;589.70;1510.40;;;;;;4916253;29;20051;-78
2022/05/02 12:39:49;;;;;;;7.95;5.30;;;614.60;1536.00;;;;;;4909159;29;20033;-78
2022/05/02 12:42:23;;;;;;;8.85;5.43;;;614.80;1459.20;;;;;;4897557;29;20079;-79
2022/05/02 12:45:07;;;;;;;10.50;4.75;;;615.20;1459.20;;;;;;4880177;29;20028;-79
2022/05/02 12:47:41;;;;;;;8.35;5.47;;;640.00;1433.60;;;;;;4898327;29;20028;-79
2022/05/02 12:50:21;;;;;;;6.53;3.38;;;640.20;1459.20;;;;;;4894287;29;20449;-78
2022/05/02 12:52:49;;;;;;;7.05;3.33;;;615.10;1408.00;;;;;;4915658;29;20426;-79
2022/05/02 12:55:16;;;;;;;6.97;3.30;;;614.80;1459.20;;;;;;4915211;29;20387;-78
2022/05/02 13:00:43;;;;;;;5.88;3.17;;;614.40;1484.80;;;;;;4915917;29;20038;-79
2022/05/02 13:03:10;;;;;;;5.07;2.97;;;589.50;1459.20;;;;;;4917146;29;20119;-78
2022/05/02 13:05:39;;;;;;;7.50;4.60;;;589.20;1484.80;;;;;;4899284;29;20028;-77
2022/05/02 13:08:11;;;;;;;7.32;3.55;;;589.20;1510.40;;;;;;4915664;29;20475;-78
2022/05/02 13:10:39;;;;;;;6.82;3.40;;;589.10;1510.40;;;;;;4915052;29;20398;-77
2022/05/02 13:13:13;;;;;;;7.32;3.50;;;588.90;1536.00;;;;;;4917081;29;20593;-77
2022/05/02 13:15:43;;;;;;;4.30;2.70;;;588.80;1536.00;;;;;;4914918;29;20478;-78
2022/05/02 13:18:18;;;;;;;5.18;2.80;;;564.00;1510.40;;;;;;4916910;29;20036;-78